sensor_id;sensor_type;location;lat;lon;timestamp;P1;durP1;ratioP1;P2;durP2;ratioP2
37151;SDS011;23046;50.112;8.952;2023-05-07T00:00:09;0.90;;;0.90;;
37151;SDS011;23046;50.112;8.952;2023-05-07T00:00:20;0.90;;;0.90;;
37151;SDS011;23046;50.112;8.952;2023-05-07T00:00:33;1.00;;;1.00;;
37151;SDS011;23046;50.112;8.952;2023-05-07T00:00:44;0.90;;;0.90;;
37151;SDS011;23046;50.112;8.952;2023-05-07T00:00:54;0.98;;;0.98;;
37151;SDS011;23046;50.112;8.952;2023-05-07T00:01:05;1.00;;;1.00;;
37151;SDS011;23046;50.112;8.952;2023-05-07T00:01:16;1.10;;;1.10;;
37151;SDS011;23046;50.112;8.952;2023-05-07T00:01:26;1.08;;;1.08;;
37151;SDS011;23046;50.112;8.952;2023-05-07T00:01:36;0.90;;;0.90;;
37151;SDS011;23046;50.112;8.952;2023-05-07T00:01:47;0.90;;;0.90;;
37151;SDS011;23046;50.112;8.952;2023-05-07T00:01:57;0.80;;;0.80;;
37151;SDS011;23046;50.112;8.952;2023-05-07T00:02:11;0.80;;;0.80;;
37151;SDS011;23046;50.112;8.952;2023-05-07T00:02:22;0.82;;;0.82;;
37151;SDS011;23046;50.112;8.952;2023-05-07T00:02:32;2.28;;;0.90;;
37151;SDS011;23046;50.112;8.952;2023-05-07T00:02:42;2.40;;;0.97;;
37151;SDS011;23046;50.112;8.952;2023-05-07T00:02:54;2.40;;;0.98;;
37151;SDS011;23046;50.112;8.952;2023-05-07T00:03:04;0.90;;;0.90;;
37151;SDS011;23046;50.112;8.952;2023-05-07T00:03:15;0.90;;;0.90;;
37151;SDS011;23046;50.112;8.952;2023-05-07T00:03:25;0.90;;;0.90;;
37151;SDS011;23046;50.112;8.952;2023-05-07T00:03:36;0.80;;;0.80;;
37151;SDS011;23046;50.112;8.952;2023-05-07T00:03:47;0.90;;;0.90;;
37151;SDS011;23046;50.112;8.952;2023-05-07T00:03:58;0.90;;;0.90;;
37151;SDS011;23046;50.112;8.952;2023-05-07T00:04:08;1.00;;;1.00;;
37151;SDS011;23046;50.112;8.952;2023-05-07T00:04:18;1.10;;;1.00;;
37151;SDS011;23046;50.112;8.952;2023-05-07T00:04:28;1.15;;;1.00;;
37151;SDS011;23046;50.112;8.952;2023-05-07T00:04:39;1.30;;;1.00;;
37151;SDS011;23046;50.112;8.952;2023-05-07T00:04:49;1.17;;;0.90;;
37151;SDS011;23046;50.112;8.952;2023-05-07T00:05:00;1.27;;;0.85;;
37151;SDS011;23046;50.112;8.952;2023-05-07T00:05:12;1.35;;;0.90;;
37151;SDS011;23046;50.112;8.952;2023-05-07T00:05:22;0.90;;;0.90;;
37151;SDS011;23046;50.112;8.952;2023-05-07T00:05:32;1.00;;;1.00;;
37151;SDS011;23046;50.112;8.952;2023-05-07T00:05:43;0.90;;;0.90;;
37151;SDS011;23046;50.112;8.952;2023-05-07T00:05:53;1.00;;;0.90;;
37151;SDS011;23046;50.112;8.952;2023-05-07T00:06:03;1.00;;;0.90;;
37151;SDS011;23046;50.112;8.952;2023-05-07T00:06:14;1.13;;;1.00;;
37151;SDS011;23046;50.112;8.952;2023-05-07T00:06:24;1.27;;;1.10;;
37151;SDS011;23046;50.112;8.952;2023-05-07T00:06:36;1.23;;;1.00;;
37151;SDS011;23046;50.112;8.952;2023-05-07T00:06:46;1.33;;;1.15;;
37151;SDS011;23046;50.112;8.952;2023-05-07T00:06:57;1.13;;;1.03;;
37151;SDS011;23046;50.112;8.952;2023-05-07T00:07:07;1.10;;;1.00;;
37151;SDS011;23046;50.112;8.952;2023-05-07T00:07:17;0.90;;;0.90;;
37151;SDS011;23046;50.112;8.952;2023-05-07T00:07:27;0.85;;;0.85;;
37151;SDS011;23046;50.112;8.952;2023-05-07T00:07:38;1.03;;;0.97;;
37151;SDS011;23046;50.112;8.952;2023-05-07T00:07:48;1.10;;;1.00;;
37151;SDS011;23046;50.112;8.952;2023-05-07T00:07:58;1.10;;;1.00;;
37151;SDS011;23046;50.112;8.952;2023-05-07T00:08:09;0.98;;;0.98;;
37151;SDS011;23046;50.112;8.952;2023-05-07T00:08:19;0.97;;;0.97;;
37151;SDS011;23046;50.112;8.952;2023-05-07T00:08:30;0.93;;;0.93;;
37151;SDS011;23046;50.112;8.952;2023-05-07T00:08:40;0.83;;;0.83;;
37151;SDS011;23046;50.112;8.952;2023-05-07T00:08:50;0.80;;;0.80;;
37151;SDS011;23046;50.112;8.952;2023-05-07T00:09:01;0.87;;;0.87;;
37151;SDS011;23046;50.112;8.952;2023-05-07T00:09:11;0.90;;;0.90;;
37151;SDS011;23046;50.112;8.952;2023-05-07T00:09:21;0.90;;;0.90;;
37151;SDS011;23046;50.112;8.952;2023-05-07T00:09:31;0.90;;;0.90;;
37151;SDS011;23046;50.112;8.952;2023-05-07T00:09:42;0.80;;;0.80;;
37151;SDS011;23046;50.112;8.952;2023-05-07T00:09:52;1.07;;;0.93;;
37151;SDS011;23046;50.112;8.952;2023-05-07T00:10:02;1.20;;;0.93;;
37151;SDS011;23046;50.112;8.952;2023-05-07T00:10:13;1.20;;;1.00;;
37151;SDS011;23046;50.112;8.952;2023-05-07T00:10:23;0.97;;;0.97;;
37151;SDS011;23046;50.112;8.952;2023-05-07T00:10:33;0.90;;;0.90;;
37151;SDS011;23046;50.112;8.952;2023-05-07T00:10:43;0.80;;;0.80;;
37151;SDS011;23046;50.112;8.952;2023-05-07T00:10:54;1.05;;;0.93;;
37151;SDS011;23046;50.112;8.952;2023-05-07T00:11:05;1.40;;;0.93;;
37151;SDS011;23046;50.112;8.952;2023-05-07T00:11:15;1.40;;;0.93;;
37151;SDS011;23046;50.112;8.952;2023-05-07T00:11:25;0.83;;;0.80;;
37151;SDS011;23046;50.112;8.952;2023-05-07T00:11:36;0.80;;;0.80;;
37151;SDS011;23046;50.112;8.952;2023-05-07T00:11:46;0.95;;;0.90;;
37151;SDS011;23046;50.112;8.952;2023-05-07T00:11:56;0.97;;;0.90;;
37151;SDS011;23046;50.112;8.952;2023-05-07T00:12:07;1.03;;;1.03;;
37151;SDS011;23046;50.112;8.952;2023-05-07T00:12:17;1.05;;;1.05;;
37151;SDS011;23046;50.112;8.952;2023-05-07T00:12:27;1.07;;;1.07;;
37151;SDS011;23046;50.112;8.952;2023-05-07T00:12:41;1.10;;;1.00;;
37151;SDS011;23046;50.112;8.952;2023-05-07T00:12:51;1.27;;;1.00;;
37151;SDS011;23046;50.112;8.952;2023-05-07T00:13:01;1.00;;;1.00;;
37151;SDS011;23046;50.112;8.952;2023-05-07T00:13:12;2.70;;;1.17;;
37151;SDS011;23046;50.112;8.952;2023-05-07T00:13:22;2.40;;;1.10;;
37151;SDS011;23046;50.112;8.952;2023-05-07T00:13:32;2.73;;;1.13;;
37151;SDS011;23046;50.112;8.952;2023-05-07T00:13:45;1.13;;;1.00;;
37151;SDS011;23046;50.112;8.952;2023-05-07T00:13:55;1.43;;;1.00;;
37151;SDS011;23046;50.112;8.952;2023-05-07T00:14:06;1.17;;;0.90;;
37151;SDS011;23046;50.112;8.952;2023-05-07T00:14:16;1.00;;;0.90;;
37151;SDS011;23046;50.112;8.952;2023-05-07T00:14:26;0.90;;;0.90;;
37151;SDS011;23046;50.112;8.952;2023-05-07T00:14:37;1.10;;;1.00;;
37151;SDS011;23046;50.112;8.952;2023-05-07T00:14:47;1.37;;;1.00;;
37151;SDS011;23046;50.112;8.952;2023-05-07T00:14:57;1.38;;;1.10;;
37151;SDS011;23046;50.112;8.952;2023-05-07T00:15:07;1.10;;;1.00;;
37151;SDS011;23046;50.112;8.952;2023-05-07T00:15:18;0.90;;;0.90;;
37151;SDS011;23046;50.112;8.952;2023-05-07T00:15:28;1.00;;;0.90;;
37151;SDS011;23046;50.112;8.952;2023-05-07T00:15:38;1.47;;;0.97;;
37151;SDS011;23046;50.112;8.952;2023-05-07T00:15:48;1.87;;;1.00;;
37151;SDS011;23046;50.112;8.952;2023-05-07T00:15:59;1.73;;;1.17;;
37151;SDS011;23046;50.112;8.952;2023-05-07T00:16:09;1.35;;;1.10;;
37151;SDS011;23046;50.112;8.952;2023-05-07T00:16:19;1.10;;;1.00;;
37151;SDS011;23046;50.112;8.952;2023-05-07T00:16:29;1.10;;;1.00;;
37151;SDS011;23046;50.112;8.952;2023-05-07T00:16:40;1.60;;;1.00;;
37151;SDS011;23046;50.112;8.952;2023-05-07T00:16:50;1.60;;;1.00;;
37151;SDS011;23046;50.112;8.952;2023-05-07T00:17:00;1.73;;;1.00;;
37151;SDS011;23046;50.112;8.952;2023-05-07T00:17:10;1.10;;;1.00;;
37151;SDS011;23046;50.112;8.952;2023-05-07T00:17:21;1.13;;;1.03;;
37151;SDS011;23046;50.112;8.952;2023-05-07T00:17:32;1.10;;;1.00;;
37151;SDS011;23046;50.112;8.952;2023-05-07T00:17:42;1.10;;;1.00;;
37151;SDS011;23046;50.112;8.952;2023-05-07T00:17:53;1.03;;;0.90;;
37151;SDS011;23046;50.112;8.952;2023-05-07T00:18:03;0.90;;;0.90;;
37151;SDS011;23046;50.112;8.952;2023-05-07T00:18:13;0.90;;;0.90;;
37151;SDS011;23046;50.112;8.952;2023-05-07T00:18:24;1.00;;;1.00;;
37151;SDS011;23046;50.112;8.952;2023-05-07T00:18:35;0.98;;;0.95;;
37151;SDS011;23046;50.112;8.952;2023-05-07T00:18:45;0.90;;;0.90;;
37151;SDS011;23046;50.112;8.952;2023-05-07T00:18:55;0.80;;;0.80;;
37151;SDS011;23046;50.112;8.952;2023-05-07T00:19:06;0.80;;;0.80;;
37151;SDS011;23046;50.112;8.952;2023-05-07T00:19:16;0.80;;;0.80;;
37151;SDS011;23046;50.112;8.952;2023-05-07T00:19:26;0.80;;;0.80;;
37151;SDS011;23046;50.112;8.952;2023-05-07T00:19:37;1.30;;;0.90;;
37151;SDS011;23046;50.112;8.952;2023-05-07T00:19:47;1.80;;;0.90;;
37151;SDS011;23046;50.112;8.952;2023-05-07T00:19:57;1.73;;;0.90;;
37151;SDS011;23046;50.112;8.952;2023-05-07T00:20:08;1.20;;;0.90;;
37151;SDS011;23046;50.112;8.952;2023-05-07T00:20:18;0.90;;;0.90;;
37151;SDS011;23046;50.112;8.952;2023-05-07T00:20:28;1.00;;;1.00;;
37151;SDS011;23046;50.112;8.952;2023-05-07T00:20:38;0.90;;;0.90;;
37151;SDS011;23046;50.112;8.952;2023-05-07T00:20:49;0.90;;;0.90;;
37151;SDS011;23046;50.112;8.952;2023-05-07T00:20:59;0.80;;;0.80;;
37151;SDS011;23046;50.112;8.952;2023-05-07T00:21:10;0.80;;;0.80;;
37151;SDS011;23046;50.112;8.952;2023-05-07T00:21:20;1.00;;;0.90;;
37151;SDS011;23046;50.112;8.952;2023-05-07T00:21:31;1.00;;;0.90;;
37151;SDS011;23046;50.112;8.952;2023-05-07T00:21:41;0.90;;;0.90;;
37151;SDS011;23046;50.112;8.952;2023-05-07T00:21:51;1.27;;;1.00;;
37151;SDS011;23046;50.112;8.952;2023-05-07T00:22:03;1.58;;;1.00;;
37151;SDS011;23046;50.112;8.952;2023-05-07T00:22:14;2.60;;;1.00;;
37151;SDS011;23046;50.112;8.952;2023-05-07T00:22:24;2.30;;;0.90;;
37151;SDS011;23046;50.112;8.952;2023-05-07T00:22:34;1.80;;;1.00;;
37151;SDS011;23046;50.112;8.952;2023-05-07T00:22:44;1.47;;;1.10;;
37151;SDS011;23046;50.112;8.952;2023-05-07T00:22:55;1.93;;;1.17;;
37151;SDS011;23046;50.112;8.952;2023-05-07T00:23:05;1.87;;;1.10;;
37151;SDS011;23046;50.112;8.952;2023-05-07T00:23:15;1.40;;;1.00;;
37151;SDS011;23046;50.112;8.952;2023-05-07T00:23:25;0.90;;;0.90;;
37151;SDS011;23046;50.112;8.952;2023-05-07T00:23:36;0.80;;;0.80;;
37151;SDS011;23046;50.112;8.952;2023-05-07T00:23:46;0.80;;;0.80;;
37151;SDS011;23046;50.112;8.952;2023-05-07T00:23:56;0.83;;;0.83;;
37151;SDS011;23046;50.112;8.952;2023-05-07T00:24:06;1.03;;;1.00;;
37151;SDS011;23046;50.112;8.952;2023-05-07T00:24:16;0.90;;;0.90;;
37151;SDS011;23046;50.112;8.952;2023-05-07T00:24:27;0.83;;;0.83;;
37151;SDS011;23046;50.112;8.952;2023-05-07T00:24:37;0.87;;;0.87;;
37151;SDS011;23046;50.112;8.952;2023-05-07T00:24:47;0.97;;;0.97;;
37151;SDS011;23046;50.112;8.952;2023-05-07T00:24:58;0.97;;;0.97;;
37151;SDS011;23046;50.112;8.952;2023-05-07T00:25:08;1.75;;;1.00;;
37151;SDS011;23046;50.112;8.952;2023-05-07T00:25:18;1.90;;;1.00;;
37151;SDS011;23046;50.112;8.952;2023-05-07T00:25:29;2.08;;;1.00;;
37151;SDS011;23046;50.112;8.952;2023-05-07T00:25:40;1.25;;;1.00;;
37151;SDS011;23046;50.112;8.952;2023-05-07T00:25:50;1.07;;;1.00;;
37151;SDS011;23046;50.112;8.952;2023-05-07T00:26:00;1.00;;;1.00;;
37151;SDS011;23046;50.112;8.952;2023-05-07T00:26:10;0.87;;;0.87;;
37151;SDS011;23046;50.112;8.952;2023-05-07T00:26:21;0.90;;;0.90;;
37151;SDS011;23046;50.112;8.952;2023-05-07T00:26:33;0.90;;;0.90;;
37151;SDS011;23046;50.112;8.952;2023-05-07T00:26:43;1.50;;;1.00;;
37151;SDS011;23046;50.112;8.952;2023-05-07T00:26:54;1.40;;;0.90;;
37151;SDS011;23046;50.112;8.952;2023-05-07T00:27:04;1.60;;;0.90;;
37151;SDS011;23046;50.112;8.952;2023-05-07T00:27:15;1.00;;;0.90;;
37151;SDS011;23046;50.112;8.952;2023-05-07T00:27:25;1.30;;;1.03;;
37151;SDS011;23046;50.112;8.952;2023-05-07T00:27:35;1.20;;;1.10;;
37151;SDS011;23046;50.112;8.952;2023-05-07T00:27:46;1.25;;;1.10;;
37151;SDS011;23046;50.112;8.952;2023-05-07T00:27:56;1.10;;;1.00;;
37151;SDS011;23046;50.112;8.952;2023-05-07T00:28:12;1.45;;;1.00;;
37151;SDS011;23046;50.112;8.952;2023-05-07T00:28:22;1.60;;;1.00;;
37151;SDS011;23046;50.112;8.952;2023-05-07T00:28:33;1.50;;;1.00;;
37151;SDS011;23046;50.112;8.952;2023-05-07T00:28:43;1.02;;;0.95;;
37151;SDS011;23046;50.112;8.952;2023-05-07T00:28:53;0.90;;;0.90;;
37151;SDS011;23046;50.112;8.952;2023-05-07T00:29:03;1.17;;;1.10;;
37151;SDS011;23046;50.112;8.952;2023-05-07T00:29:13;1.00;;;1.00;;
37151;SDS011;23046;50.112;8.952;2023-05-07T00:29:24;1.00;;;1.00;;
37151;SDS011;23046;50.112;8.952;2023-05-07T00:29:34;0.80;;;0.80;;
37151;SDS011;23046;50.112;8.952;2023-05-07T00:29:44;0.90;;;0.90;;
37151;SDS011;23046;50.112;8.952;2023-05-07T00:29:55;1.33;;;1.07;;
37151;SDS011;23046;50.112;8.952;2023-05-07T00:30:05;1.40;;;1.10;;
37151;SDS011;23046;50.112;8.952;2023-05-07T00:30:16;1.10;;;1.00;;
37151;SDS011;23046;50.112;8.952;2023-05-07T00:30:26;0.90;;;0.90;;
37151;SDS011;23046;50.112;8.952;2023-05-07T00:30:36;0.90;;;0.90;;
37151;SDS011;23046;50.112;8.952;2023-05-07T00:30:47;0.87;;;0.87;;
37151;SDS011;23046;50.112;8.952;2023-05-07T00:30:57;0.90;;;0.90;;
37151;SDS011;23046;50.112;8.952;2023-05-07T00:31:07;0.90;;;0.90;;
37151;SDS011;23046;50.112;8.952;2023-05-07T00:31:17;0.93;;;0.93;;
37151;SDS011;23046;50.112;8.952;2023-05-07T00:31:28;1.00;;;1.00;;
37151;SDS011;23046;50.112;8.952;2023-05-07T00:31:38;1.00;;;1.00;;
37151;SDS011;23046;50.112;8.952;2023-05-07T00:31:49;0.93;;;0.93;;
37151;SDS011;23046;50.112;8.952;2023-05-07T00:31:59;0.90;;;0.90;;
37151;SDS011;23046;50.112;8.952;2023-05-07T00:32:09;1.30;;;0.90;;
37151;SDS011;23046;50.112;8.952;2023-05-07T00:32:20;1.40;;;0.93;;
37151;SDS011;23046;50.112;8.952;2023-05-07T00:32:30;1.23;;;0.90;;
37151;SDS011;23046;50.112;8.952;2023-05-07T00:32:40;1.00;;;0.90;;
37151;SDS011;23046;50.112;8.952;2023-05-07T00:32:51;1.00;;;1.00;;
37151;SDS011;23046;50.112;8.952;2023-05-07T00:33:01;1.30;;;1.10;;
37151;SDS011;23046;50.112;8.952;2023-05-07T00:33:11;1.40;;;1.08;;
37151;SDS011;23046;50.112;8.952;2023-05-07T00:33:21;2.20;;;1.00;;
37151;SDS011;23046;50.112;8.952;2023-05-07T00:33:32;1.77;;;0.90;;
37151;SDS011;23046;50.112;8.952;2023-05-07T00:33:42;3.05;;;0.93;;
37151;SDS011;23046;50.112;8.952;2023-05-07T00:33:52;2.73;;;1.10;;
37151;SDS011;23046;50.112;8.952;2023-05-07T00:34:03;2.77;;;1.20;;
37151;SDS011;23046;50.112;8.952;2023-05-07T00:34:13;1.30;;;1.20;;
37151;SDS011;23046;50.112;8.952;2023-05-07T00:34:23;1.00;;;1.00;;
37151;SDS011;23046;50.112;8.952;2023-05-07T00:34:33;1.10;;;1.10;;
37151;SDS011;23046;50.112;8.952;2023-05-07T00:34:44;1.10;;;1.00;;
37151;SDS011;23046;50.112;8.952;2023-05-07T00:34:54;1.47;;;1.00;;
37151;SDS011;23046;50.112;8.952;2023-05-07T00:35:04;1.33;;;0.80;;
37151;SDS011;23046;50.112;8.952;2023-05-07T00:35:15;1.00;;;0.90;;
37151;SDS011;23046;50.112;8.952;2023-05-07T00:35:25;1.02;;;0.93;;
37151;SDS011;23046;50.112;8.952;2023-05-07T00:35:35;1.20;;;1.10;;
37151;SDS011;23046;50.112;8.952;2023-05-07T00:35:46;1.20;;;1.10;;
37151;SDS011;23046;50.112;8.952;2023-05-07T00:35:56;1.30;;;1.20;;
37151;SDS011;23046;50.112;8.952;2023-05-07T00:36:06;1.20;;;1.10;;
37151;SDS011;23046;50.112;8.952;2023-05-07T00:36:16;1.20;;;1.10;;
37151;SDS011;23046;50.112;8.952;2023-05-07T00:36:27;1.00;;;1.00;;
37151;SDS011;23046;50.112;8.952;2023-05-07T00:36:37;1.00;;;1.00;;
37151;SDS011;23046;50.112;8.952;2023-05-07T00:36:47;1.00;;;0.90;;
37151;SDS011;23046;50.112;8.952;2023-05-07T00:36:58;1.10;;;0.90;;
37151;SDS011;23046;50.112;8.952;2023-05-07T00:37:08;1.20;;;0.90;;
37151;SDS011;23046;50.112;8.952;2023-05-07T00:37:18;0.98;;;0.90;;
37151;SDS011;23046;50.112;8.952;2023-05-07T00:37:29;0.90;;;0.90;;
37151;SDS011;23046;50.112;8.952;2023-05-07T00:37:40;0.98;;;0.98;;
37151;SDS011;23046;50.112;8.952;2023-05-07T00:37:50;1.00;;;1.00;;
37151;SDS011;23046;50.112;8.952;2023-05-07T00:38:00;1.38;;;1.05;;
37151;SDS011;23046;50.112;8.952;2023-05-07T00:38:11;1.60;;;1.10;;
37151;SDS011;23046;50.112;8.952;2023-05-07T00:38:21;1.60;;;1.00;;
37151;SDS011;23046;50.112;8.952;2023-05-07T00:38:31;0.97;;;0.93;;
37151;SDS011;23046;50.112;8.952;2023-05-07T00:38:41;0.90;;;0.90;;
37151;SDS011;23046;50.112;8.952;2023-05-07T00:38:53;1.00;;;1.00;;
37151;SDS011;23046;50.112;8.952;2023-05-07T00:39:04;1.00;;;1.00;;
37151;SDS011;23046;50.112;8.952;2023-05-07T00:39:14;1.20;;;1.10;;
37151;SDS011;23046;50.112;8.952;2023-05-07T00:39:24;1.33;;;1.00;;
37151;SDS011;23046;50.112;8.952;2023-05-07T00:39:35;1.60;;;1.00;;
37151;SDS011;23046;50.112;8.952;2023-05-07T00:39:45;1.45;;;0.90;;
37151;SDS011;23046;50.112;8.952;2023-05-07T00:39:56;1.00;;;0.97;;
37151;SDS011;23046;50.112;8.952;2023-05-07T00:40:06;0.97;;;0.97;;
37151;SDS011;23046;50.112;8.952;2023-05-07T00:40:17;0.90;;;0.90;;
37151;SDS011;23046;50.112;8.952;2023-05-07T00:40:27;0.82;;;0.82;;
37151;SDS011;23046;50.112;8.952;2023-05-07T00:40:38;0.87;;;0.87;;
37151;SDS011;23046;50.112;8.952;2023-05-07T00:40:48;0.93;;;0.93;;
37151;SDS011;23046;50.112;8.952;2023-05-07T00:40:58;1.00;;;1.00;;
37151;SDS011;23046;50.112;8.952;2023-05-07T00:41:08;1.00;;;1.00;;
37151;SDS011;23046;50.112;8.952;2023-05-07T00:41:19;1.10;;;1.00;;
37151;SDS011;23046;50.112;8.952;2023-05-07T00:41:30;1.10;;;1.00;;
37151;SDS011;23046;50.112;8.952;2023-05-07T00:41:42;2.42;;;0.90;;
37151;SDS011;23046;50.112;8.952;2023-05-07T00:41:53;2.70;;;0.90;;
37151;SDS011;23046;50.112;8.952;2023-05-07T00:42:03;1.70;;;0.93;;
37151;SDS011;23046;50.112;8.952;2023-05-07T00:42:13;1.57;;;1.00;;
37151;SDS011;23046;50.112;8.952;2023-05-07T00:42:25;1.20;;;0.98;;
37151;SDS011;23046;50.112;8.952;2023-05-07T00:42:35;0.97;;;0.90;;
37151;SDS011;23046;50.112;8.952;2023-05-07T00:42:45;1.17;;;1.07;;
37151;SDS011;23046;50.112;8.952;2023-05-07T00:42:57;1.00;;;1.00;;
37151;SDS011;23046;50.112;8.952;2023-05-07T00:43:08;1.02;;;1.02;;
37151;SDS011;23046;50.112;8.952;2023-05-07T00:43:18;0.93;;;0.93;;
37151;SDS011;23046;50.112;8.952;2023-05-07T00:43:29;1.00;;;1.00;;
37151;SDS011;23046;50.112;8.952;2023-05-07T00:43:39;1.00;;;1.00;;
37151;SDS011;23046;50.112;8.952;2023-05-07T00:43:50;1.23;;;1.15;;
37151;SDS011;23046;50.112;8.952;2023-05-07T00:44:01;1.20;;;1.10;;
37151;SDS011;23046;50.112;8.952;2023-05-07T00:44:12;1.20;;;1.10;;
37151;SDS011;23046;50.112;8.952;2023-05-07T00:44:23;1.00;;;1.00;;
37151;SDS011;23046;50.112;8.952;2023-05-07T00:44:33;0.90;;;0.90;;
37151;SDS011;23046;50.112;8.952;2023-05-07T00:44:43;0.80;;;0.80;;
37151;SDS011;23046;50.112;8.952;2023-05-07T00:44:53;0.77;;;0.77;;
37151;SDS011;23046;50.112;8.952;2023-05-07T00:45:05;0.80;;;0.80;;
37151;SDS011;23046;50.112;8.952;2023-05-07T00:45:15;0.90;;;0.90;;
37151;SDS011;23046;50.112;8.952;2023-05-07T00:45:27;1.00;;;1.00;;
37151;SDS011;23046;50.112;8.952;2023-05-07T00:45:37;1.05;;;1.05;;
37151;SDS011;23046;50.112;8.952;2023-05-07T00:45:47;1.17;;;1.10;;
37151;SDS011;23046;50.112;8.952;2023-05-07T00:45:58;1.13;;;1.02;;
37151;SDS011;23046;50.112;8.952;2023-05-07T00:46:08;1.00;;;1.00;;
37151;SDS011;23046;50.112;8.952;2023-05-07T00:46:19;1.00;;;1.00;;
37151;SDS011;23046;50.112;8.952;2023-05-07T00:46:30;1.02;;;1.02;;
37151;SDS011;23046;50.112;8.952;2023-05-07T00:46:41;1.00;;;1.00;;
37151;SDS011;23046;50.112;8.952;2023-05-07T00:46:51;1.00;;;1.00;;
37151;SDS011;23046;50.112;8.952;2023-05-07T00:47:02;0.97;;;0.97;;
37151;SDS011;23046;50.112;8.952;2023-05-07T00:47:13;0.90;;;0.90;;
37151;SDS011;23046;50.112;8.952;2023-05-07T00:47:24;0.90;;;0.90;;
37151;SDS011;23046;50.112;8.952;2023-05-07T00:47:35;0.80;;;0.80;;
37151;SDS011;23046;50.112;8.952;2023-05-07T00:47:45;0.87;;;0.87;;
37151;SDS011;23046;50.112;8.952;2023-05-07T00:47:57;1.00;;;1.00;;
37151;SDS011;23046;50.112;8.952;2023-05-07T00:48:07;1.00;;;1.00;;
37151;SDS011;23046;50.112;8.952;2023-05-07T00:48:18;1.10;;;1.10;;
37151;SDS011;23046;50.112;8.952;2023-05-07T00:48:28;1.20;;;1.10;;
37151;SDS011;23046;50.112;8.952;2023-05-07T00:48:38;1.07;;;1.00;;
37151;SDS011;23046;50.112;8.952;2023-05-07T00:48:49;0.98;;;0.90;;
37151;SDS011;23046;50.112;8.952;2023-05-07T00:49:00;0.90;;;0.85;;
37151;SDS011;23046;50.112;8.952;2023-05-07T00:49:10;1.07;;;0.93;;
37151;SDS011;23046;50.112;8.952;2023-05-07T00:49:21;1.13;;;1.03;;
37151;SDS011;23046;50.112;8.952;2023-05-07T00:49:38;1.00;;;0.98;;
37151;SDS011;23046;50.112;8.952;2023-05-07T00:49:48;0.80;;;0.80;;
37151;SDS011;23046;50.112;8.952;2023-05-07T00:49:59;1.50;;;0.90;;
37151;SDS011;23046;50.112;8.952;2023-05-07T00:50:09;1.50;;;0.90;;
37151;SDS011;23046;50.112;8.952;2023-05-07T00:50:22;1.58;;;1.00;;
37151;SDS011;23046;50.112;8.952;2023-05-07T00:50:33;1.00;;;1.00;;
37151;SDS011;23046;50.112;8.952;2023-05-07T00:50:43;1.00;;;1.00;;
37151;SDS011;23046;50.112;8.952;2023-05-07T00:50:54;0.90;;;0.90;;
37151;SDS011;23046;50.112;8.952;2023-05-07T00:51:05;1.08;;;1.00;;
37151;SDS011;23046;50.112;8.952;2023-05-07T00:51:15;1.10;;;1.00;;
37151;SDS011;23046;50.112;8.952;2023-05-07T00:51:25;1.70;;;1.20;;
37151;SDS011;23046;50.112;8.952;2023-05-07T00:51:37;1.40;;;1.10;;
37151;SDS011;23046;50.112;8.952;2023-05-07T00:51:47;1.30;;;1.05;;
37151;SDS011;23046;50.112;8.952;2023-05-07T00:51:57;0.93;;;0.90;;
37151;SDS011;23046;50.112;8.952;2023-05-07T00:52:09;1.00;;;0.90;;
37151;SDS011;23046;50.112;8.952;2023-05-07T00:52:20;1.00;;;1.00;;
37151;SDS011;23046;50.112;8.952;2023-05-07T00:52:32;1.00;;;1.00;;
37151;SDS011;23046;50.112;8.952;2023-05-07T00:52:42;1.03;;;1.00;;
37151;SDS011;23046;50.112;8.952;2023-05-07T00:52:53;1.10;;;1.00;;
37151;SDS011;23046;50.112;8.952;2023-05-07T00:53:03;1.13;;;1.03;;
37151;SDS011;23046;50.112;8.952;2023-05-07T00:53:14;1.25;;;1.10;;
37151;SDS011;23046;50.112;8.952;2023-05-07T00:53:24;1.30;;;1.20;;
37151;SDS011;23046;50.112;8.952;2023-05-07T00:53:34;1.20;;;1.10;;
37151;SDS011;23046;50.112;8.952;2023-05-07T00:53:45;1.13;;;1.03;;
37151;SDS011;23046;50.112;8.952;2023-05-07T00:53:55;1.00;;;1.00;;
37151;SDS011;23046;50.112;8.952;2023-05-07T00:54:06;1.00;;;1.00;;
37151;SDS011;23046;50.112;8.952;2023-05-07T00:54:16;1.10;;;1.10;;
37151;SDS011;23046;50.112;8.952;2023-05-07T00:54:26;1.13;;;1.10;;
37151;SDS011;23046;50.112;8.952;2023-05-07T00:54:37;0.93;;;0.93;;
37151;SDS011;23046;50.112;8.952;2023-05-07T00:54:47;0.93;;;0.93;;
37151;SDS011;23046;50.112;8.952;2023-05-07T00:54:57;0.98;;;0.93;;
37151;SDS011;23046;50.112;8.952;2023-05-07T00:55:09;1.30;;;1.00;;
37151;SDS011;23046;50.112;8.952;2023-05-07T00:55:20;1.50;;;1.00;;
37151;SDS011;23046;50.112;8.952;2023-05-07T00:55:32;1.13;;;1.00;;
37151;SDS011;23046;50.112;8.952;2023-05-07T00:55:42;1.30;;;1.00;;
37151;SDS011;23046;50.112;8.952;2023-05-07T00:55:52;1.25;;;1.00;;
37151;SDS011;23046;50.112;8.952;2023-05-07T00:56:03;1.20;;;0.90;;
37151;SDS011;23046;50.112;8.952;2023-05-07T00:56:13;0.90;;;0.90;;
37151;SDS011;23046;50.112;8.952;2023-05-07T00:56:24;0.90;;;0.90;;
37151;SDS011;23046;50.112;8.952;2023-05-07T00:56:34;1.02;;;0.93;;
37151;SDS011;23046;50.112;8.952;2023-05-07T00:56:45;1.10;;;1.00;;
37151;SDS011;23046;50.112;8.952;2023-05-07T00:56:55;1.07;;;1.07;;
37151;SDS011;23046;50.112;8.952;2023-05-07T00:57:06;1.00;;;1.00;;
37151;SDS011;23046;50.112;8.952;2023-05-07T00:57:16;1.37;;;1.10;;
37151;SDS011;23046;50.112;8.952;2023-05-07T00:57:27;1.80;;;0.90;;
37151;SDS011;23046;50.112;8.952;2023-05-07T00:57:37;2.10;;;0.90;;
37151;SDS011;23046;50.112;8.952;2023-05-07T00:57:50;0.98;;;0.90;;
37151;SDS011;23046;50.112;8.952;2023-05-07T00:58:00;1.27;;;1.05;;
37151;SDS011;23046;50.112;8.952;2023-05-07T00:58:11;1.10;;;1.00;;
37151;SDS011;23046;50.112;8.952;2023-05-07T00:58:21;1.07;;;0.97;;
37151;SDS011;23046;50.112;8.952;2023-05-07T00:58:32;0.90;;;0.90;;
37151;SDS011;23046;50.112;8.952;2023-05-07T00:58:42;0.90;;;0.90;;
37151;SDS011;23046;50.112;8.952;2023-05-07T00:58:52;1.00;;;1.00;;
37151;SDS011;23046;50.112;8.952;2023-05-07T00:59:03;1.10;;;1.00;;
37151;SDS011;23046;50.112;8.952;2023-05-07T00:59:13;1.13;;;1.03;;
37151;SDS011;23046;50.112;8.952;2023-05-07T00:59:23;1.10;;;1.00;;
37151;SDS011;23046;50.112;8.952;2023-05-07T00:59:33;1.10;;;1.00;;
37151;SDS011;23046;50.112;8.952;2023-05-07T00:59:44;1.00;;;1.00;;
37151;SDS011;23046;50.112;8.952;2023-05-07T00:59:55;1.02;;;1.00;;
37151;SDS011;23046;50.112;8.952;2023-05-07T01:00:05;1.10;;;1.00;;
37151;SDS011;23046;50.112;8.952;2023-05-07T01:00:16;1.10;;;1.00;;
37151;SDS011;23046;50.112;8.952;2023-05-07T01:00:26;1.03;;;1.00;;
37151;SDS011;23046;50.112;8.952;2023-05-07T01:00:37;1.30;;;1.00;;
37151;SDS011;23046;50.112;8.952;2023-05-07T01:00:47;1.30;;;1.00;;
37151;SDS011;23046;50.112;8.952;2023-05-07T01:00:57;1.20;;;0.90;;
37151;SDS011;23046;50.112;8.952;2023-05-07T01:01:08;0.90;;;0.90;;
37151;SDS011;23046;50.112;8.952;2023-05-07T01:01:18;1.00;;;1.00;;
37151;SDS011;23046;50.112;8.952;2023-05-07T01:01:28;1.10;;;1.10;;
37151;SDS011;23046;50.112;8.952;2023-05-07T01:01:39;1.20;;;1.10;;
37151;SDS011;23046;50.112;8.952;2023-05-07T01:01:49;1.08;;;0.98;;
37151;SDS011;23046;50.112;8.952;2023-05-07T01:01:59;0.90;;;0.90;;
37151;SDS011;23046;50.112;8.952;2023-05-07T01:02:09;0.80;;;0.80;;
37151;SDS011;23046;50.112;8.952;2023-05-07T01:02:20;0.88;;;0.88;;
37151;SDS011;23046;50.112;8.952;2023-05-07T01:02:30;0.90;;;0.90;;
37151;SDS011;23046;50.112;8.952;2023-05-07T01:02:41;0.90;;;0.90;;
37151;SDS011;23046;50.112;8.952;2023-05-07T01:02:51;0.95;;;0.95;;
37151;SDS011;23046;50.112;8.952;2023-05-07T01:03:02;1.00;;;1.00;;
37151;SDS011;23046;50.112;8.952;2023-05-07T01:03:12;1.10;;;1.10;;
37151;SDS011;23046;50.112;8.952;2023-05-07T01:03:23;0.97;;;0.97;;
37151;SDS011;23046;50.112;8.952;2023-05-07T01:03:33;0.93;;;0.90;;